createdAt,value
2023-05-05T00:02:01.727Z,4.05
2023-05-05T00:04:28.639Z,3.90
2023-05-05T00:06:55.272Z,4.22
2023-05-05T00:09:24.121Z,3.97
2023-05-05T00:11:50.788Z,4.22
2023-05-05T00:14:17.438Z,4.55
2023-05-05T00:16:44.291Z,4.10
2023-05-05T00:19:15.738Z,4.25
2023-05-05T00:21:47.124Z,4.50
2023-05-05T00:24:16.348Z,4.38
2023-05-05T00:26:42.957Z,4.40
2023-05-05T00:29:11.760Z,4.68
2023-05-05T00:31:40.977Z,4.32
2023-05-05T00:34:10.117Z,4.32
2023-05-05T00:36:39.237Z,4.22
2023-05-05T00:39:10.853Z,4.45
2023-05-05T00:41:40.761Z,4.18
2023-05-05T00:44:07.424Z,4.00
2023-05-05T00:46:35.268Z,4.65
2023-05-05T00:49:04.358Z,4.57
2023-05-05T00:51:31.912Z,4.80
2023-05-05T00:53:58.549Z,4.97
2023-05-05T00:56:27.246Z,5.75
2023-05-05T00:58:54.034Z,4.90
2023-05-05T01:01:20.685Z,5.13
2023-05-05T01:03:47.405Z,4.78
2023-05-05T01:06:45.215Z,5.00
2023-05-05T01:09:32.320Z,5.53
2023-05-05T01:12:36.613Z,5.20
2023-05-05T01:15:21.824Z,5.10
2023-05-05T01:18:30.224Z,5.00
2023-05-05T01:21:24.279Z,5.40
2023-05-05T01:23:53.987Z,5.40
2023-05-05T01:26:57.403Z,5.30
2023-05-05T01:30:02.084Z,5.75
2023-05-05T01:32:38.023Z,5.50
2023-05-05T01:35:20.240Z,5.22
2023-05-05T01:37:57.414Z,5.60
2023-05-05T01:40:27.779Z,5.10
2023-05-05T01:42:55.908Z,5.28
2023-05-05T01:45:25.778Z,5.25
2023-05-05T01:47:57.168Z,6.30
2023-05-05T01:50:28.003Z,5.45
2023-05-05T01:52:58.865Z,5.90
2023-05-05T01:55:27.937Z,5.78
2023-05-05T01:57:58.614Z,5.32
2023-05-05T02:00:26.981Z,5.68
2023-05-05T02:02:57.411Z,5.60
2023-05-05T02:05:27.441Z,6.25
2023-05-05T02:07:58.974Z,5.53
2023-05-05T02:10:28.997Z,6.18
2023-05-05T02:12:57.046Z,5.70
2023-05-05T02:15:24.948Z,6.47
2023-05-05T02:17:52.891Z,5.95
2023-05-05T02:20:26.656Z,6.20
2023-05-05T02:22:54.017Z,6.38
2023-05-05T02:25:32.276Z,6.15
2023-05-05T02:28:03.598Z,6.22
2023-05-05T02:30:34.719Z,6.78
2023-05-05T02:33:09.475Z,6.13
2023-05-05T02:35:40.974Z,6.47
2023-05-05T02:38:17.180Z,6.43
2023-05-05T02:40:46.561Z,7.18
2023-05-05T02:43:19.482Z,6.30
2023-05-05T02:45:47.887Z,6.40
2023-05-05T02:48:17.197Z,6.65
2023-05-05T02:50:43.898Z,7.07
2023-05-05T02:53:13.295Z,6.50
2023-05-05T02:55:49.785Z,6.47
2023-05-05T02:58:26.462Z,6.32
2023-05-05T03:01:08.517Z,5.65
2023-05-05T03:03:59.359Z,6.38
2023-05-05T03:06:28.364Z,5.78
2023-05-05T03:09:03.611Z,6.45
2023-05-05T03:11:38.685Z,6.40
2023-05-05T03:14:13.564Z,6.32
2023-05-05T03:16:43.659Z,7.07
2023-05-05T03:19:13.078Z,6.68
2023-05-05T03:21:42.528Z,6.80
2023-05-05T03:24:20.046Z,6.55
2023-05-05T03:26:48.121Z,6.28
2023-05-05T03:29:15.777Z,6.68
2023-05-05T03:31:42.658Z,6.97
2023-05-05T03:34:09.417Z,6.90
2023-05-05T03:36:38.706Z,6.82
2023-05-05T03:39:05.379Z,7.10
2023-05-05T03:41:37.060Z,7.63
2023-05-05T03:44:06.548Z,7.63
2023-05-05T03:46:33.259Z,7.28
2023-05-05T03:48:59.951Z,7.95
2023-05-05T03:51:26.789Z,7.35
2023-05-05T03:53:55.750Z,7.35
2023-05-05T03:56:24.927Z,7.18
2023-05-05T03:58:53.850Z,8.02
2023-05-05T04:01:20.765Z,7.20
2023-05-05T04:03:47.862Z,8.13
2023-05-05T04:06:14.696Z,7.43
2023-05-05T04:08:43.864Z,7.63
2023-05-05T04:11:10.714Z,7.38
2023-05-05T04:13:37.313Z,7.68
2023-05-05T04:16:06.786Z,8.00
2023-05-05T04:18:33.483Z,7.20
2023-05-05T04:21:00.717Z,7.80
2023-05-05T04:23:32.040Z,7.68
2023-05-05T04:26:00.924Z,8.27
2023-05-05T04:28:32.466Z,8.07
2023-05-05T04:31:01.030Z,7.70
2023-05-05T04:33:27.817Z,7.68
2023-05-05T04:35:54.449Z,7.57
2023-05-05T04:38:21.323Z,8.43
2023-05-05T04:40:52.461Z,7.93
2023-05-05T04:43:19.770Z,7.63
2023-05-05T04:45:55.287Z,7.55
2023-05-05T04:50:51.268Z,7.80
2023-05-05T04:53:18.010Z,8.07
2023-05-05T04:55:44.757Z,7.63
2023-05-05T04:58:11.433Z,8.52
2023-05-05T05:00:40.290Z,8.20
2023-05-05T05:03:08.125Z,8.65
2023-05-05T05:05:34.876Z,8.27
2023-05-05T05:08:01.551Z,8.25
2023-05-05T05:10:30.405Z,8.77
2023-05-05T05:12:59.586Z,8.25
2023-05-05T05:15:28.545Z,8.77
2023-05-05T05:17:55.188Z,8.02
2023-05-05T05:20:21.832Z,8.73
2023-05-05T05:22:48.669Z,8.98
2023-05-05T05:25:15.434Z,9.07
2023-05-05T05:27:44.772Z,8.25
2023-05-05T05:30:16.278Z,9.25
2023-05-05T05:32:42.970Z,9.30
2023-05-05T05:35:12.254Z,8.60
2023-05-05T05:37:38.935Z,8.57
2023-05-05T05:40:08.544Z,9.15
2023-05-05T05:42:37.886Z,8.43
2023-05-05T05:45:07.365Z,8.70
2023-05-05T05:47:34.002Z,8.45
2023-05-05T05:50:04.719Z,9.32
2023-05-05T05:52:31.396Z,8.77
2023-05-05T05:55:00.543Z,8.45
2023-05-05T05:57:29.365Z,8.68
2023-05-05T05:59:56.462Z,8.85
2023-05-05T06:02:23.162Z,8.95
2023-05-05T06:04:52.652Z,9.35
2023-05-05T06:07:19.613Z,9.43
2023-05-05T06:09:46.373Z,9.05
2023-05-05T06:12:15.546Z,8.88
2023-05-05T06:14:42.307Z,8.90
2023-05-05T06:17:09.013Z,9.32
2023-05-05T06:19:39.264Z,9.02
2023-05-05T06:22:08.133Z,8.25
2023-05-05T06:24:34.817Z,8.82
2023-05-05T06:27:02.341Z,8.93
2023-05-05T06:29:29.018Z,8.70
2023-05-05T06:31:55.714Z,9.25
2023-05-05T06:34:24.571Z,9.13
2023-05-05T06:36:53.970Z,9.35
2023-05-05T06:39:20.798Z,10.65
2023-05-05T06:41:49.915Z,10.40
2023-05-05T06:44:16.559Z,11.40
2023-05-05T06:46:43.623Z,12.35
2023-05-05T06:49:10.386Z,11.93
2023-05-05T06:51:37.044Z,11.57
2023-05-05T06:54:06.085Z,12.32
2023-05-05T06:56:32.747Z,12.20
2023-05-05T06:58:59.421Z,12.13
2023-05-05T07:01:26.145Z,11.65
2023-05-05T07:03:55.077Z,12.00
2023-05-05T07:06:22.111Z,11.43
2023-05-05T07:08:48.797Z,11.43
2023-05-05T07:11:15.653Z,10.73
2023-05-05T07:13:44.764Z,11.93
2023-05-05T07:16:11.424Z,12.07
2023-05-05T07:18:38.140Z,11.45
2023-05-05T07:21:06.511Z,12.13
2023-05-05T07:23:34.110Z,11.60
2023-05-05T07:26:00.879Z,12.63
2023-05-05T07:28:27.565Z,11.63
2023-05-05T07:30:56.412Z,12.32
2023-05-05T07:33:23.060Z,12.77
2023-05-05T07:35:49.700Z,12.52
2023-05-05T07:38:18.555Z,12.32
2023-05-05T07:40:47.449Z,12.65
2023-05-05T07:43:18.872Z,13.00
2023-05-05T07:45:45.580Z,13.30
2023-05-05T07:48:12.311Z,13.32
2023-05-05T07:50:38.987Z,13.35
2023-05-05T07:53:13.530Z,14.15
2023-05-05T07:55:41.459Z,12.80
2023-05-05T07:58:08.513Z,13.98
2023-05-05T08:00:35.509Z,13.15
2023-05-05T08:03:03.499Z,13.65
2023-05-05T08:05:32.297Z,13.80
2023-05-05T08:08:01.311Z,14.18
2023-05-05T08:10:30.122Z,12.85
2023-05-05T08:12:56.775Z,14.80
2023-05-05T08:15:25.736Z,14.02
2023-05-05T08:17:58.656Z,13.23
2023-05-05T08:20:28.747Z,13.52
2023-05-05T08:22:55.557Z,13.77
2023-05-05T08:25:22.489Z,13.23
2023-05-05T08:27:51.509Z,14.02
2023-05-05T08:30:20.875Z,14.50
2023-05-05T08:32:47.566Z,13.90
2023-05-05T08:35:16.528Z,13.80
2023-05-05T08:37:46.053Z,12.95
2023-05-05T08:40:15.691Z,12.93
2023-05-05T08:42:44.480Z,12.85
2023-05-05T08:45:11.828Z,13.43
2023-05-05T08:47:43.065Z,12.90
2023-05-05T08:50:11.187Z,12.10
2023-05-05T08:52:44.380Z,13.05
2023-05-05T08:55:24.039Z,13.30
2023-05-05T08:57:54.647Z,11.88
2023-05-05T09:00:22.131Z,11.65
2023-05-05T09:02:52.518Z,10.73
2023-05-05T09:05:19.285Z,11.38
2023-05-05T09:07:47.130Z,9.85
2023-05-05T09:10:17.106Z,9.00
2023-05-05T09:12:46.558Z,9.00
2023-05-05T09:15:14.952Z,8.35
2023-05-05T09:17:42.265Z,7.68
2023-05-05T09:20:13.452Z,7.20
2023-05-05T09:22:44.224Z,8.02
2023-05-05T09:25:12.720Z,8.95
2023-05-05T09:27:47.535Z,11.32
2023-05-05T09:30:23.232Z,10.57
2023-05-05T09:32:54.687Z,10.15
2023-05-05T09:35:22.759Z,11.00
2023-05-05T09:37:54.209Z,11.25
2023-05-05T09:40:24.104Z,11.13
2023-05-05T09:43:01.736Z,10.77
2023-05-05T09:45:30.890Z,13.82
2023-05-05T09:48:00.201Z,11.75
2023-05-05T09:50:30.982Z,13.90
2023-05-05T09:52:58.990Z,11.65
2023-05-05T09:55:25.903Z,11.40
2023-05-05T09:57:52.640Z,10.45
2023-05-05T10:00:22.026Z,10.43
2023-05-05T10:02:48.711Z,10.38
2023-05-05T10:05:17.384Z,9.88
2023-05-05T10:07:47.713Z,9.02
2023-05-05T10:10:17.186Z,10.68
2023-05-05T10:12:45.916Z,9.40
2023-05-05T10:15:15.032Z,9.43
2023-05-05T10:18:06.964Z,9.18
2023-05-05T10:20:37.882Z,9.60
2023-05-05T10:23:08.008Z,8.18
2023-05-05T10:25:49.072Z,7.43
2023-05-05T10:28:22.965Z,8.23
2023-05-05T10:30:53.580Z,7.07
2023-05-05T10:33:55.929Z,7.85
2023-05-05T10:36:24.456Z,7.82
2023-05-05T10:38:56.814Z,8.07
2023-05-05T10:41:26.915Z,8.27
2023-05-05T10:43:57.421Z,8.13
2023-05-05T10:46:26.754Z,7.63
2023-05-05T10:49:19.764Z,6.68
2023-05-05T10:51:55.500Z,6.82
2023-05-05T10:54:43.281Z,6.65
2023-05-05T10:57:11.996Z,6.15
2023-05-05T10:59:38.973Z,7.43
2023-05-05T11:02:24.732Z,7.18
2023-05-05T11:05:23.732Z,6.65
2023-05-05T11:07:54.742Z,7.47
2023-05-05T11:10:22.960Z,5.90
2023-05-05T11:12:52.528Z,7.35
2023-05-05T11:15:30.678Z,6.03
2023-05-05T11:17:59.463Z,7.30
2023-05-05T11:20:35.913Z,6.72
2023-05-05T11:23:05.396Z,7.13
2023-05-05T11:25:35.571Z,6.82
2023-05-05T11:28:24.882Z,6.43
2023-05-05T11:30:58.526Z,6.47
2023-05-05T11:33:29.780Z,0.80
2023-05-05T11:36:05.968Z,0.40
2023-05-05T11:38:41.440Z,0.43
2023-05-05T11:41:10.876Z,0.60
2023-05-05T11:43:37.740Z,0.55
2023-05-05T11:46:15.193Z,1.17
2023-05-05T11:48:52.789Z,0.60
2023-05-05T11:51:22.311Z,0.90
2023-05-05T11:53:50.089Z,0.43
2023-05-05T11:56:21.654Z,0.20
2023-05-05T11:58:51.367Z,1.50
2023-05-05T12:01:18.058Z,1.23
2023-05-05T12:03:45.437Z,0.45
2023-05-05T12:06:15.596Z,0.50
2023-05-05T12:08:42.333Z,0.47
2023-05-05T12:11:11.702Z,0.40
2023-05-05T12:13:38.629Z,0.43
2023-05-05T12:16:19.823Z,0.35
2023-05-05T12:19:02.582Z,0.85
2023-05-05T12:21:31.589Z,0.40
2023-05-05T12:24:01.252Z,0.60
2023-05-05T12:26:28.896Z,0.50
2023-05-05T12:29:02.051Z,0.55
2023-05-05T12:31:35.976Z,0.47
2023-05-05T12:34:06.405Z,0.20
2023-05-05T12:36:33.925Z,0.25
2023-05-05T12:39:00.828Z,0.40
2023-05-05T12:41:28.186Z,0.40
2023-05-05T12:43:59.230Z,0.52
2023-05-05T12:46:31.908Z,0.35
2023-05-05T12:49:05.081Z,0.20
2023-05-05T12:51:34.925Z,0.50
2023-05-05T12:54:12.179Z,0.55
2023-05-05T12:56:41.063Z,0.30
2023-05-05T12:59:11.799Z,1.00
2023-05-05T13:02:01.512Z,1.60
2023-05-05T13:04:29.168Z,0.45
2023-05-05T13:07:14.949Z,1.58
2023-05-05T13:09:42.006Z,4.60
2023-05-05T13:12:16.436Z,5.05
2023-05-05T13:14:46.669Z,5.32
2023-05-05T13:17:16.523Z,4.68
2023-05-05T13:19:46.072Z,5.93
2023-05-05T13:22:13.300Z,5.32
2023-05-05T13:24:51.548Z,5.43
2023-05-05T13:27:19.132Z,3.78
2023-05-05T13:29:46.103Z,1.60
2023-05-05T13:32:13.610Z,2.17
2023-05-05T13:34:44.001Z,1.92
2023-05-05T13:37:13.368Z,1.90
2023-05-05T13:39:42.733Z,2.15
2023-05-05T13:42:11.620Z,1.98
2023-05-05T13:44:38.355Z,2.00
2023-05-05T13:47:05.474Z,2.50
2023-05-05T13:49:37.206Z,2.17
2023-05-05T13:52:06.373Z,2.30
2023-05-05T13:54:35.428Z,2.13
2023-05-05T13:57:04.745Z,2.17
2023-05-05T13:59:31.489Z,2.08
2023-05-05T14:01:58.850Z,2.20
2023-05-05T14:04:28.099Z,2.05
2023-05-05T14:06:54.809Z,2.38
2023-05-05T14:09:21.510Z,2.63
2023-05-05T14:11:50.558Z,2.83
2023-05-05T14:14:17.860Z,2.55
2023-05-05T14:16:44.533Z,2.35
2023-05-05T14:19:13.508Z,2.25
2023-05-05T14:21:42.392Z,2.60
2023-05-05T14:24:11.294Z,2.75
2023-05-05T14:26:37.938Z,2.58
2023-05-05T14:29:07.038Z,2.30
2023-05-05T14:31:36.662Z,2.50
2023-05-05T14:34:03.500Z,2.80
2023-05-05T14:36:32.638Z,2.95
2023-05-05T14:38:59.326Z,3.22
2023-05-05T14:41:26.187Z,3.03
2023-05-05T14:43:57.067Z,0.20
2023-05-05T14:46:28.496Z,0.60
2023-05-05T14:48:55.161Z,0.28
2023-05-05T14:51:21.826Z,0.50
2023-05-05T14:53:51.053Z,0.32
2023-05-05T14:56:18.034Z,0.60
2023-05-05T14:58:44.679Z,0.55
2023-05-05T15:01:13.547Z,0.40
2023-05-05T15:03:40.568Z,0.28
2023-05-05T15:06:08.315Z,0.30
2023-05-05T15:08:35.012Z,0.38
2023-05-05T15:11:01.707Z,0.40
2023-05-05T15:13:31.239Z,0.30
2023-05-05T15:15:57.977Z,0.40
2023-05-05T15:18:24.719Z,0.50
2023-05-05T15:20:51.381Z,0.40
2023-05-05T15:23:18.024Z,0.47
2023-05-05T15:25:47.132Z,0.43
2023-05-05T15:28:13.787Z,0.30
2023-05-05T15:30:42.988Z,0.40
2023-05-05T15:33:09.633Z,0.30
2023-05-05T15:35:36.368Z,0.55
2023-05-05T15:38:05.181Z,0.40
2023-05-05T15:40:34.286Z,0.60
2023-05-05T15:43:00.899Z,0.30
2023-05-05T15:45:27.542Z,0.32
2023-05-05T15:47:58.909Z,0.52
2023-05-05T15:50:25.904Z,0.30
2023-05-05T15:52:52.620Z,0.40
2023-05-05T15:55:19.282Z,0.30
2023-05-05T15:57:45.979Z,0.50
2023-05-05T16:00:13.535Z,0.30
2023-05-05T16:02:40.346Z,0.30
2023-05-05T16:05:08.190Z,0.45
2023-05-05T16:07:34.998Z,0.30
2023-05-05T16:10:04.058Z,0.55
2023-05-05T16:12:33.144Z,0.20
2023-05-05T16:15:01.960Z,0.47
2023-05-05T16:17:28.616Z,0.60
2023-05-05T16:19:57.436Z,0.60
2023-05-05T16:22:24.098Z,0.30
2023-05-05T16:24:50.726Z,2.10
2023-05-05T16:27:17.475Z,2.38
2023-05-05T16:29:44.221Z,2.25
2023-05-05T16:32:11.013Z,2.35
2023-05-05T16:34:37.649Z,2.20
2023-05-05T16:37:06.681Z,2.03
2023-05-05T16:39:40.018Z,3.00
2023-05-05T16:42:09.221Z,2.92
2023-05-05T16:44:38.354Z,3.20
2023-05-05T16:47:09.519Z,3.00
2023-05-05T16:49:36.365Z,3.05
2023-05-05T16:52:03.064Z,3.75
2023-05-05T16:54:32.622Z,4.10
2023-05-05T16:57:02.279Z,4.70
2023-05-05T16:59:31.712Z,4.80
2023-05-05T17:01:58.495Z,5.15
2023-05-05T17:04:29.981Z,4.15
2023-05-05T17:06:59.091Z,4.47
2023-05-05T17:09:25.874Z,4.68
2023-05-05T17:11:52.614Z,5.40
2023-05-05T17:14:21.787Z,5.72
2023-05-05T17:16:48.452Z,6.38
2023-05-05T17:19:19.868Z,6.85
2023-05-05T17:21:46.514Z,8.07
2023-05-05T17:24:13.141Z,11.35
2023-05-05T17:26:44.546Z,11.05
2023-05-05T17:29:12.948Z,11.43
2023-05-05T17:31:39.822Z,12.43
2023-05-05T17:34:06.482Z,13.68
2023-05-05T17:36:35.478Z,13.63
2023-05-05T17:39:05.816Z,14.05
2023-05-05T17:41:34.686Z,13.90
2023-05-05T17:44:01.361Z,13.98
2023-05-05T17:46:28.385Z,14.40
2023-05-05T17:48:55.558Z,14.75
2023-05-05T17:51:24.455Z,14.57
2023-05-05T17:53:53.222Z,13.57
2023-05-05T17:56:24.337Z,14.10
2023-05-05T17:58:56.018Z,13.88
2023-05-05T18:01:24.127Z,13.35
2023-05-05T18:03:53.404Z,14.85
2023-05-05T18:06:20.217Z,14.23
2023-05-05T18:08:46.934Z,14.32
2023-05-05T18:11:13.672Z,16.02
2023-05-05T18:13:40.395Z,16.00
2023-05-05T18:16:09.477Z,15.40
2023-05-05T18:18:38.827Z,16.05
2023-05-05T18:21:05.587Z,15.57
2023-05-05T18:23:36.947Z,15.02
2023-05-05T18:26:05.998Z,16.27
2023-05-05T18:28:32.656Z,16.20
2023-05-05T18:30:59.323Z,17.08
2023-05-05T18:33:26.519Z,16.73
2023-05-05T18:35:56.451Z,16.42
2023-05-05T18:38:25.304Z,16.38
2023-05-05T18:40:51.924Z,16.70
2023-05-05T18:43:21.040Z,18.00
2023-05-05T18:45:50.071Z,19.25
2023-05-05T18:48:16.734Z,17.42
2023-05-05T18:50:43.375Z,18.27
2023-05-05T18:53:14.685Z,16.80
2023-05-05T18:55:43.266Z,16.27
2023-05-05T18:58:09.997Z,16.60
2023-05-05T19:00:38.939Z,17.58
2023-05-05T19:03:08.111Z,15.90
2023-05-05T19:05:39.780Z,17.00
2023-05-05T19:08:09.163Z,17.80
2023-05-05T19:10:35.870Z,16.90
2023-05-05T19:13:02.517Z,16.65
2023-05-05T19:15:32.340Z,16.63
2023-05-05T19:17:59.464Z,17.15
2023-05-05T19:20:31.555Z,16.42
2023-05-05T19:23:04.319Z,16.92
2023-05-05T19:25:31.398Z,15.40
2023-05-05T19:28:00.630Z,15.30
2023-05-05T19:30:27.436Z,15.65
2023-05-05T19:32:54.274Z,15.23
2023-05-05T19:35:21.160Z,14.77
2023-05-05T19:37:47.893Z,15.93
2023-05-05T19:40:14.578Z,14.07
2023-05-05T19:42:41.280Z,15.40
2023-05-05T19:45:08.333Z,15.88
2023-05-05T19:47:35.800Z,14.20
2023-05-05T19:50:04.959Z,16.65
2023-05-05T19:52:31.624Z,15.30
2023-05-05T19:54:59.005Z,16.58
2023-05-05T19:57:28.109Z,16.20
2023-05-05T19:59:54.760Z,17.85
2023-05-05T20:02:22.059Z,17.92
2023-05-05T20:04:51.190Z,17.55
2023-05-05T20:07:21.102Z,17.15
2023-05-05T20:09:47.772Z,17.25
2023-05-05T20:12:14.576Z,17.80
2023-05-05T20:14:41.554Z,16.65
2023-05-05T20:17:08.259Z,16.58
2023-05-05T20:19:34.880Z,16.92
2023-05-05T20:22:01.530Z,17.08
2023-05-05T20:24:30.504Z,19.58
2023-05-05T20:26:57.143Z,16.55
2023-05-05T20:29:28.481Z,17.25
2023-05-05T20:31:55.240Z,17.27
2023-05-05T20:34:27.644Z,15.27
2023-05-05T20:36:54.544Z,16.98
2023-05-05T20:39:21.217Z,17.30
2023-05-05T20:41:51.372Z,17.95
2023-05-05T20:44:20.712Z,15.88
2023-05-05T20:46:47.465Z,18.05
2023-05-05T20:49:14.085Z,17.25
2023-05-05T20:51:40.712Z,17.98
2023-05-05T20:54:07.422Z,18.65
2023-05-05T20:56:34.092Z,17.48
2023-05-05T20:59:05.311Z,18.38
2023-05-05T21:01:36.672Z,18.38
2023-05-05T21:04:07.898Z,18.63
2023-05-05T21:06:36.767Z,19.85
2023-05-05T21:09:06.624Z,19.63
2023-05-05T21:11:33.376Z,19.83
2023-05-05T21:14:00.021Z,20.65
2023-05-05T21:16:29.064Z,19.75
2023-05-05T21:18:55.758Z,19.33
2023-05-05T21:21:23.816Z,19.23
2023-05-05T21:23:50.690Z,20.75
2023-05-05T21:26:17.312Z,20.60
2023-05-05T21:28:43.944Z,21.38
2023-05-05T21:31:21.631Z,20.25
2023-05-05T21:33:48.790Z,20.27
2023-05-05T21:36:17.459Z,20.20
2023-05-05T21:38:46.679Z,21.58
2023-05-05T21:41:13.335Z,21.23
2023-05-05T21:43:39.976Z,22.05
2023-05-05T21:46:09.022Z,19.13
2023-05-05T21:48:38.600Z,19.95
2023-05-05T21:51:07.857Z,20.65
2023-05-05T21:53:37.696Z,20.40
2023-05-05T21:56:06.354Z,19.63
2023-05-05T21:58:35.475Z,19.25
2023-05-05T22:01:02.440Z,19.13
2023-05-05T22:03:34.143Z,18.92
2023-05-05T22:06:01.016Z,20.58
2023-05-05T22:08:27.657Z,19.30
2023-05-05T22:10:54.282Z,20.88
2023-05-05T22:13:23.211Z,21.17
2023-05-05T22:15:50.120Z,23.05
2023-05-05T22:18:21.485Z,22.23
2023-05-05T22:20:51.221Z,22.63
2023-05-05T22:23:17.851Z,23.38
2023-05-05T22:25:44.585Z,21.20
2023-05-05T22:28:11.631Z,22.80
2023-05-05T22:30:40.666Z,23.02
2023-05-05T22:33:07.446Z,22.98
2023-05-05T22:35:34.225Z,22.20
2023-05-05T22:38:01.418Z,24.17
2023-05-05T22:40:28.048Z,25.20
2023-05-05T22:42:57.304Z,24.45
2023-05-05T22:45:26.490Z,24.77
2023-05-05T22:47:57.740Z,26.23
2023-05-05T22:50:26.651Z,23.33
2023-05-05T22:52:53.310Z,23.13
2023-05-05T22:55:20.301Z,24.30
2023-05-05T22:57:47.355Z,23.85
2023-05-05T23:00:16.609Z,22.38
2023-05-05T23:02:45.488Z,23.02
2023-05-05T23:05:14.357Z,22.90
2023-05-05T23:07:43.201Z,24.63
2023-05-05T23:10:12.743Z,22.30
2023-05-05T23:12:39.429Z,21.00
2023-05-05T23:15:08.023Z,22.15
2023-05-05T23:17:34.984Z,22.70
2023-05-05T23:20:04.272Z,22.13
2023-05-05T23:22:30.897Z,22.17
2023-05-05T23:24:59.976Z,23.45
2023-05-05T23:27:28.750Z,22.83
2023-05-05T23:29:59.853Z,24.55
2023-05-05T23:32:28.758Z,23.98
2023-05-05T23:34:57.791Z,23.17
2023-05-05T23:37:29.413Z,24.30
2023-05-05T23:39:56.766Z,23.13
2023-05-05T23:42:24.362Z,23.50
2023-05-05T23:44:50.997Z,24.35
2023-05-05T23:47:19.921Z,21.92
2023-05-05T23:49:48.729Z,22.63
2023-05-05T23:52:15.444Z,23.70
2023-05-05T23:54:44.422Z,22.60
2023-05-05T23:57:11.276Z,24.40
2023-05-05T23:59:39.059Z,23.13
